LSZA 210220Z AUTO 36003KT 9999 NCD 12/12 Q1021 LSZA 210150Z AUTO 36004KT 9999 FEW019 SCT110 12/12 Q1021 LSZA 210120Z AUTO VRB02KT 9999 FEW024 13/12 Q1021 LSZA 210050Z AUTO 36003KT 9999 NCD 13/12 Q1021 LSZA 210020Z AUTO VRB02KT 9999 FEW075 BKN095 14/13 Q1021 LSZA 202350Z AUTO VRB01KT 9999 BKN095 15/13 Q1020 LSZA 202320Z AUTO VRB01KT 9999 OVC095 15/13 Q1020 LSZA 202250Z AUTO VRB01KT 9999 OVC090 15/13 Q1020 LSZA 202220Z AUTO VRB03KT 9999 BKN085 BKN095 15/13 Q1020 LSZA 202150Z AUTO VRB02KT 9999 BKN085 15/13 Q1019 LSZA 202120Z AUTO VRB02KT 9999 SCT085 SCT100 15/13 Q1019 LSZA 202050Z AUTO VRB02KT 9999 FEW085 BKN100 BKN100 15/14 Q1019 LSZA 202020Z AUTO VRB02KT 9999 SCT090 BKN110 16/13 Q1018 LSZA 201950Z AUTO 01003KT 350V070 9999 BKN085 //////TCU 16/14 Q1018 LSZA 201920Z AUTO VRB02KT 9999 FEW090 BKN120 //////TCU 16/14 Q1018 LSZA 201850Z AUTO 36002KT 9999 SCT085 SCT095 //////TCU 16/15 Q1018 LSZA 201820Z AUTO 01002KT 9999 BKN085 17/14 Q1017 LSZA 201750Z AUTO VRB02KT 9999 FEW080 SCT090 BKN120 17/15 Q1017 LSZA 201720Z AUTO VRB01KT 9999 -RA FEW075 SCT090 BKN100 18/15 Q1016 LSZA 201650Z AUTO VRB02KT 9999 SCT100 SCT110 18/15 Q1016 LSZA 201620Z AUTO VRB02KT 9999 NSC 19/15 Q1015 LSZA 201550Z 19002KT 9999 VCSH FEW050 OVC120 20/15 Q1015 NOSIG LSZA 201520Z VRB02KT 9999 FEW050 OVC120 19/15 Q1015 NOSIG LSZA 201450Z VRB02KT 9999 FEW060 BKN110 20/14 Q1015 NOSIG LSZA 201420Z 17002KT 9999 FEW050 OVC120 20/13 Q1015 NOSIG LSZA 201350Z 18003KT 9999 FEW070 OVC120 20/13 Q1015 NOSIG LSZA 201320Z 18003KT 9999 FEW070 OVC120 20/14 Q1015 NOSIG LSZA 201250Z VRB01KT 9999 FEW070 OVC110 20/13 Q1015 NOSIG LSZA 201220Z VRB02KT 9999 FEW070 BKN100 20/13 Q1015 NOSIG LSZA 201150Z VRB01KT 9999 BKN110 20/12 Q1015 NOSIG LSZA 201120Z VRB02KT 9999 BKN110 19/12 Q1015 NOSIG LSZA 201050Z AUTO VRB02KT 9999 BKN110 19/13 Q1014 LSZA 201020Z VRB02KT 9999 FEW080 19/11 Q1014 NOSIG LSZA 200950Z VRB02KT CAVOK 18/11 Q1014 NOSIG LSZA 200920Z VRB01KT 9999 FEW110 17/11 Q1014 NOSIG LSZA 200850Z 01003KT 9999 FEW110 15/11 Q1014 NOSIG LSZA 200820Z VRB02KT 9999 FEW110 14/11 Q1014 NOSIG LSZA 200750Z VRB01KT 9999 FEW110 14/12 Q1014 NOSIG LSZA 200720Z VRB01KT CAVOK 14/11 Q1013 NOSIG LSZA 200650Z VRB01KT CAVOK 12/11 Q1013 NOSIG LSZA 200620Z VRB01KT CAVOK 11/10 Q1013 NOSIG LSZA 200550Z VRB02KT CAVOK 10/09 Q1013 NOSIG LSZA 200520Z VRB01KT CAVOK 10/10 Q1013 NOSIG LSZA 200450Z VRB01KT CAVOK 10/10 Q1012 NOSIG LSZA 200420Z AUTO VRB02KT CAVOK 10/10 Q1012 LSZA 200350Z AUTO VRB02KT 9999 NSC 10/10 Q1012 LSZA 200320Z AUTO VRB02KT CAVOK 10/09 Q1012 LSZA 200250Z AUTO VRB01KT CAVOK 10/09 Q1012 LSZA 200220Z AUTO VRB01KT CAVOK 09/09 Q1012 LSZA 200150Z AUTO VRB01KT CAVOK 09/09 Q1012 LSZA 200120Z AUTO VRB02KT CAVOK 09/09 Q1012 LSZA 200050Z AUTO 02003KT 350V060 CAVOK 10/09 Q1012 LSZA 200020Z AUTO VRB01KT CAVOK 10/09 Q1013 LSZA 192350Z AUTO VRB02KT CAVOK 10/09 Q1013 LSZA 192320Z AUTO VRB02KT CAVOK 11/10 Q1013 LSZA 192250Z AUTO VRB02KT CAVOK 11/10 Q1012 LSZA 192220Z AUTO VRB01KT 9999 NCD 11/10 Q1012 LSZA 192150Z AUTO VRB01KT 9999 FEW120 12/10 Q1012 LSZA 192120Z AUTO 17003KT 090V230 9999 NCD 12/10 Q1012 LSZA 192050Z AUTO VRB02KT CAVOK 12/11 Q1012 LSZA 192020Z AUTO VRB02KT 9999 NSC 12/10 Q1012 LSZA 191950Z AUTO VRB02KT CAVOK 12/11 Q1012 LSZA 191920Z AUTO VRB02KT CAVOK 13/11 Q1012 LSZA 191850Z AUTO VRB02KT CAVOK 14/11 Q1011 LSZA 191820Z AUTO 19004KT 120V220 9999 NSC 14/11 Q1011 LSZA 191750Z AUTO VRB03KT 9999 FEW120 16/10 Q1011 LSZA 191720Z 01012KT 9999 VCSH FEW100 17/07 Q1010 LSZA 191650Z 36011KT 320V030 9999 VCSH FEW070 SCT100 16/08 Q1010 LSZA 191620Z 36014KT 330V070 9999 FEW050 SCT095 15/08 Q1011 LSZA 191550Z 36016KT 9999 FEW050 15/08 Q1011 LSZA 191520Z 01017G27KT 9999 //////TCU 15/09 Q1011 LSZA 191450Z 36010G20KT 330V060 9999 SCT030 BKN100 15/10 Q1011

METAR Messwerte

Zurück zur Übersicht

Ort
m ü. NN
Zeit Temperatur Taupunkt Rel.
Luftfeuchte
Luftdruck:
Altimeter
NN
Station
Wind in Beaufort
(Knoten)
Sichtweite
(Meter)
Wolken
(Meter über Grund)
Wettererscheinung
Lugano
276
Di 21.09. 04:201212100 %1021
1021
988
N 2 (3)>= 10000  
Lugano
276
Di 21.09. 03:501212100 %1021
1021
988
N 2 (4)>= 10000Wolkig (3400)
Leicht bewölkt (580)
 
Lugano
276
Di 21.09. 03:20131294 %1021
1021
988
Uml 1 (2)>= 10000Leicht bewölkt (730) 
Lugano
276
Di 21.09. 02:50131294 %1021
1021
988
N 2 (3)>= 10000  
Lugano
276
Di 21.09. 02:20141394 %1021
1021
988
Uml 1 (2)>= 10000Stark bewölkt (2900)
Leicht bewölkt (2300)
 
Lugano
276
Di 21.09. 01:50151388 %1020
1020
987
Uml 1 (1)>= 10000Stark bewölkt (2900) 
Lugano
276
Di 21.09. 01:20151388 %1020
1020
987
Uml 1 (1)>= 10000Bedeckt (2900) 
Lugano
276
Di 21.09. 00:50151388 %1020
1020
987
Uml 1 (1)>= 10000Bedeckt (2700) 
Lugano
276
Di 21.09. 00:20151388 %1020
1020
987
Uml 2 (3)>= 10000Stark bewölkt (2900)
Stark bewölkt (2600)
 
Lugano
276
Mo 20.09. 23:50151388 %1019
1019
986
Uml 1 (2)>= 10000Stark bewölkt (2600) 
Lugano
276
Mo 20.09. 23:20151388 %1019
1019
986
Uml 1 (2)>= 10000Wolkig (3000)
Wolkig (2600)
 
Lugano
276
Mo 20.09. 22:50151494 %1019
1019
986
Uml 1 (2)>= 10000Stark bewölkt (3000)
Stark bewölkt (3000)
Leicht bewölkt (2600)
 
Lugano
276
Mo 20.09. 22:20161382 %1018
1018
985
Uml 1 (2)>= 10000Stark bewölkt (3400)
Wolkig (2700)
 
Lugano
276
Mo 20.09. 21:50161488 %1018
1018
985
N 2 (3)
N - ONO
>= 10000Stark bewölkt (2600) 
Lugano
276
Mo 20.09. 21:20161488 %1018
1018
985
Uml 1 (2)>= 10000Stark bewölkt (3700)
Leicht bewölkt (2700)
 
Lugano
276
Mo 20.09. 20:50161594 %1018
1018
985
N 1 (2)>= 10000Wolkig (2900)
Wolkig (2600)
 
Lugano
276
Mo 20.09. 20:20171482 %1017
1017
984
N 1 (2)>= 10000Stark bewölkt (2600) 
Lugano
276
Mo 20.09. 19:50171588 %1017
1017
984
Uml 1 (2)>= 10000Stark bewölkt (3700)
Wolkig (2700)
Leicht bewölkt (2400)
 
Lugano
276
Mo 20.09. 19:20181583 %1016
1016
983
Uml 1 (1)>= 10000Stark bewölkt (3000)
Wolkig (2700)
Leicht bewölkt (2300)
Regen (schwach)
Lugano
276
Mo 20.09. 18:50181583 %1016
1016
983
Uml 1 (2)>= 10000Wolkig (3400)
Wolkig (3000)
 
Lugano
276
Mo 20.09. 18:20191578 %1015
1015
982
Uml 1 (2)>= 10000Nicht signifikant 
Lugano
276
Mo 20.09. 17:50201573 %1015
1014
982
S 1 (2)>= 10000Bedeckt (3700)
Leicht bewölkt (1500)
 
Lugano
276
Mo 20.09. 17:20191578 %1015
1015
982
Uml 1 (2)>= 10000Bedeckt (3700)
Leicht bewölkt (1500)
 
Lugano
276
Mo 20.09. 16:50201468 %1015
1014
982
Uml 1 (2)>= 10000Stark bewölkt (3400)
Leicht bewölkt (1800)
 
Lugano
276
Mo 20.09. 16:20201364 %1015
1014
982
S 1 (2)>= 10000Bedeckt (3700)
Leicht bewölkt (1500)
 
Lugano
276
Mo 20.09. 15:50201364 %1015
1014
982
S 2 (3)>= 10000Bedeckt (3700)
Leicht bewölkt (2100)
 
Lugano
276
Mo 20.09. 15:20201468 %1015
1014
982
S 2 (3)>= 10000Bedeckt (3700)
Leicht bewölkt (2100)
 
Lugano
276
Mo 20.09. 14:50201364 %1015
1014
982
Uml 1 (1)>= 10000Bedeckt (3400)
Leicht bewölkt (2100)
 
Lugano
276
Mo 20.09. 14:20201364 %1015
1014
982
Uml 1 (2)>= 10000Stark bewölkt (3000)
Leicht bewölkt (2100)
 
Lugano
276
Mo 20.09. 13:50201260 %1015
1014
982
Uml 1 (1)>= 10000Stark bewölkt (3400) 
Lugano
276
Mo 20.09. 13:20191264 %1015
1015
982
Uml 1 (2)>= 10000Stark bewölkt (3400) 
Lugano
276
Mo 20.09. 12:50191368 %1014
1014
981
Uml 1 (2)>= 10000Stark bewölkt (3400) 
Lugano
276
Mo 20.09. 12:20191160 %1014
1014
981
Uml 1 (2)>= 10000Leicht bewölkt (2400) 
Lugano
276
Mo 20.09. 11:50181164 %1014
1014
981
Uml 1 (2)>= 10000Nicht signifikant 
Lugano
276
Mo 20.09. 11:20171168 %1014
1014
981
Uml 1 (1)>= 10000Leicht bewölkt (3400) 
Lugano
276
Mo 20.09. 10:50151177 %1014
1014
981
N 2 (3)>= 10000Leicht bewölkt (3400) 
Lugano
276
Mo 20.09. 10:20141182 %1014
1014
981
Uml 1 (2)>= 10000Leicht bewölkt (3400) 
Lugano
276
Mo 20.09. 09:50141288 %1014
1014
981
Uml 1 (1)>= 10000Leicht bewölkt (3400) 
Lugano
276
Mo 20.09. 09:20141182 %1013
1013
980
Uml 1 (1)>= 10000Nicht signifikant 
Lugano
276
Mo 20.09. 08:50121194 %1013
1013
980
Uml 1 (1)>= 10000Nicht signifikant 
Lugano
276
Mo 20.09. 08:20111094 %1013
1013
980
Uml 1 (1)>= 10000Nicht signifikant 
Lugano
276
Mo 20.09. 07:5010993 %1013
1014
980
Uml 1 (2)>= 10000Nicht signifikant 
Lugano
276
Mo 20.09. 07:201010100 %1013
1014
980
Uml 1 (1)>= 10000Nicht signifikant 
Lugano
276
Mo 20.09. 06:501010100 %1012
1013
979
Uml 1 (1)>= 10000Nicht signifikant 
Lugano
276
Mo 20.09. 06:201010100 %1012
1013
979
Uml 1 (2)>= 10000Nicht signifikant 
Lugano
276
Mo 20.09. 05:501010100 %1012
1013
979
Uml 1 (2)>= 10000Nicht signifikant 
Lugano
276
Mo 20.09. 05:2010993 %1012
1013
979
Uml 1 (2)>= 10000Nicht signifikant 
Lugano
276
Mo 20.09. 04:5010993 %1012
1013
979
Uml 1 (1)>= 10000Nicht signifikant 
Lugano
276
Mo 20.09. 04:2099100 %1012
1013
979
Uml 1 (1)>= 10000Nicht signifikant 
Lugano
276
Mo 20.09. 03:5099100 %1012
1013
979
Uml 1 (1)>= 10000Nicht signifikant 
Lugano
276
Mo 20.09. 03:2099100 %1012
1013
979
Uml 1 (2)>= 10000Nicht signifikant 
Lugano
276
Mo 20.09. 02:5010993 %1012
1013
979
NNO 2 (3)
N - ONO
>= 10000Nicht signifikant 
Lugano
276
Mo 20.09. 02:2010993 %1013
1014
980
Uml 1 (1)>= 10000Nicht signifikant 
Lugano
276
Mo 20.09. 01:5010993 %1013
1014
980
Uml 1 (2)>= 10000Nicht signifikant 
Lugano
276
Mo 20.09. 01:20111094 %1013
1013
980
Uml 1 (2)>= 10000Nicht signifikant 
Lugano
276
Mo 20.09. 00:50111094 %1012
1012
979
Uml 1 (2)>= 10000Nicht signifikant 
Lugano
276
Mo 20.09. 00:20111094 %1012
1012
979
Uml 1 (1)>= 10000  
Lugano
276
So 19.09. 23:50121088 %1012
1012
979
Uml 1 (1)>= 10000Leicht bewölkt (3700) 
Lugano
276
So 19.09. 23:20121088 %1012
1012
979
S 2 (3)
O - SW
>= 10000  
Lugano
276
So 19.09. 22:50121194 %1012
1012
979
Uml 1 (2)>= 10000Nicht signifikant 
Lugano
276
So 19.09. 22:20121088 %1012
1012
979
Uml 1 (2)>= 10000Nicht signifikant 
Lugano
276
So 19.09. 21:50121194 %1012
1012
979
Uml 1 (2)>= 10000Nicht signifikant 
Lugano
276
So 19.09. 21:20131188 %1012
1012
979
Uml 1 (2)>= 10000Nicht signifikant 
Lugano
276
So 19.09. 20:50141182 %1011
1011
978
Uml 1 (2)>= 10000Nicht signifikant 
Lugano
276
So 19.09. 20:20141182 %1011
1011
978
S 2 (4)
OSO - SW
>= 10000Nicht signifikant 
Lugano
276
So 19.09. 19:50161068 %1011
1011
978
Uml 2 (3)>= 10000Leicht bewölkt (3700) 
Lugano
276
So 19.09. 19:2017752 %1010
1010
977
N 4 (12)>= 10000Leicht bewölkt (3000) 
Lugano
276
So 19.09. 18:5016859 %1010
1010
977
N 4 (11)
NW - NNO
>= 10000Wolkig (3000)
Leicht bewölkt (2100)
 
Lugano
276
So 19.09. 18:2015863 %1011
1011
978
N 4 (14)
NNW - ONO
>= 10000Wolkig (2900)
Leicht bewölkt (1500)
 
Lugano
276
So 19.09. 17:5015863 %1011
1011
978
N 5 (16)>= 10000Leicht bewölkt (1500) 
Lugano
276
So 19.09. 17:2015967 %1011
1011
978
N 5 (17) - 7 (27)>= 10000  
Lugano
276
So 19.09. 16:50151072 %1011
1011
978
N 3 (10) - 5 (20)
NNW - ONO
>= 10000Stark bewölkt (3000)
Wolkig (910)
 

Altimeter: Einstellung am Altimeter (Höhenmesser), die Höhe 0 muss auf diesen Luftdruckwert zeigen, damit das Gerät die Stationshöhe richtig anzeigt.

NN: Luftdruck reduziert auf "Normal Null", auf Meereshöhe, dieser von der Temperatur abhängige Wert wird bisweilen unkorrekt einfach als "Luftdruck" bezeichnet. Eigentlich nur eine fiktive Größe, die es erlaubt, Stationen auf unterschiedlichen Höhen miteinander zu vergleichen.

Station: Realer Luftdruck an der Station.